Time;durP1;ratioP1;P1;durP2;ratioP2;P2;SDS_P1;SDS_P2;PMS_P1;PMS_P2;Temp;Humidity;BMP_temperature;BMP_pressure;BME280_temperature;BME280_humidity;BME280_pressure;Samples;Min_cycle;Max_cycle;Signal;HPM_P1;HPM_P2
2022/09/24 00:01:50;;;;;;;93.47;49.47;;;13.50;99.90;;;;;;5051343;28;20048;-71
2022/09/24 00:04:17;;;;;;;98.22;50.40;;;13.60;99.90;;;;;;5055634;28;20119;-71
2022/09/24 00:06:45;;;;;;;93.72;50.78;;;13.40;99.90;;;;;;5059620;28;20051;-71
2022/09/24 00:09:13;;;;;;;104.45;51.38;;;13.50;99.90;;;;;;5060537;28;20129;-71
2022/09/24 00:11:40;;;;;;;93.55;50.00;;;13.50;99.90;;;;;;5059384;28;20036;-71
2022/09/24 00:14:06;;;;;;;90.90;50.10;;;13.50;99.90;;;;;;5070803;28;20039;-71
2022/09/24 00:16:33;;;;;;;100.85;52.13;;;13.60;99.90;;;;;;5059294;28;20473;-71
2022/09/24 00:19:00;;;;;;;102.25;50.97;;;13.60;99.90;;;;;;5063585;28;20064;-71
2022/09/24 00:21:31;;;;;;;91.30;48.90;;;13.40;99.90;;;;;;5057120;28;20604;-71
2022/09/24 00:24:02;;;;;;;88.15;47.42;;;13.40;99.90;;;;;;5077034;28;20074;-71
2022/09/24 00:29:22;;;;;;;90.50;48.97;;;13.60;99.90;;;;;;5058170;28;20411;-71
2022/09/24 00:31:50;;;;;;;94.38;50.65;;;13.30;99.90;;;;;;5056948;28;20448;-72
2022/09/24 00:34:16;;;;;;;92.68;49.80;;;13.40;99.90;;;;;;5056442;28;20067;-71
2022/09/24 00:36:41;;;;;;;96.35;49.03;;;13.50;99.90;;;;;;5057947;28;20100;-72
2022/09/24 00:39:07;;;;;;;95.65;49.63;;;13.50;99.90;;;;;;5056336;28;20043;-72
2022/09/24 00:41:36;;;;;;;98.78;49.58;;;13.30;99.90;;;;;;5056894;28;20084;-72
2022/09/24 00:44:40;;;;;;;95.63;51.00;;;13.30;99.90;;;;;;5055051;28;20048;-72
2022/09/24 00:47:19;;;;;;;99.43;49.63;;;13.50;99.90;;;;;;5053807;28;20036;-72
2022/09/24 00:49:47;;;;;;;92.45;48.17;;;13.30;99.90;;;;;;5057369;28;20420;-72
2022/09/24 00:52:14;;;;;;;101.28;51.78;;;13.50;99.90;;;;;;5056710;28;20040;-72
2022/09/24 00:54:43;;;;;;;97.13;49.70;;;13.30;99.90;;;;;;5059468;28;20399;-71
2022/09/24 00:57:08;;;;;;;92.95;48.45;;;13.30;99.90;;;;;;5058649;28;20037;-72
2022/09/24 00:59:34;;;;;;;97.43;49.15;;;13.40;99.90;;;;;;5058469;28;20434;-71
2022/09/24 01:02:01;;;;;;;92.78;47.80;;;13.40;99.90;;;;;;5042714;28;20041;-72
2022/09/24 01:04:27;;;;;;;97.18;49.85;;;13.50;99.90;;;;;;5054823;28;20124;-72
2022/09/24 01:06:54;;;;;;;86.28;49.10;;;13.50;99.90;;;;;;5058366;28;20183;-72
2022/09/24 01:09:23;;;;;;;97.97;49.13;;;13.30;99.90;;;;;;5053269;28;20045;-72
2022/09/24 01:12:04;;;;;;;93.93;49.38;;;13.30;99.90;;;;;;5052006;28;20063;-71
2022/09/24 01:14:48;;;;;;;99.38;49.58;;;13.40;99.90;;;;;;5060514;28;20044;-71
2022/09/24 01:17:29;;;;;;;91.90;47.70;;;13.30;99.90;;;;;;5075327;28;20036;-72
2022/09/24 01:20:19;;;;;;;89.50;48.25;;;13.50;99.90;;;;;;5037921;28;20131;-71
2022/09/24 01:23:06;;;;;;;94.68;48.45;;;13.50;99.90;;;;;;5065463;28;20040;-72
2022/09/24 01:25:32;;;;;;;106.10;50.03;;;13.40;99.90;;;;;;5056003;28;20045;-72
2022/09/24 01:28:47;;;;;;;91.93;47.35;;;13.30;99.90;;;;;;5073311;28;20036;-72
2022/09/24 01:31:30;;;;;;;97.80;49.45;;;13.30;99.90;;;;;;5051542;28;20053;-72
2022/09/24 01:34:00;;;;;;;104.15;49.47;;;13.30;99.90;;;;;;5068940;28;20048;-71
2022/09/24 01:36:27;;;;;;;100.15;49.38;;;13.50;99.90;;;;;;5054317;28;20033;-72
2022/09/24 01:38:54;;;;;;;103.43;49.50;;;13.50;99.90;;;;;;5059224;28;20428;-72
2022/09/24 01:41:21;;;;;;;105.05;50.58;;;13.30;99.90;;;;;;5052295;28;20047;-72
2022/09/24 01:43:47;;;;;;;96.95;48.50;;;13.50;99.90;;;;;;5059826;28;20067;-72
2022/09/24 01:46:16;;;;;;;95.15;48.38;;;13.50;99.90;;;;;;5035836;28;20084;-72
2022/09/24 01:48:42;;;;;;;102.25;49.25;;;13.40;99.90;;;;;;5061027;28;20388;-72
2022/09/24 01:51:47;;;;;;;100.50;50.08;;;13.40;99.90;;;;;;5058522;28;20052;-72
2022/09/24 01:54:37;;;;;;;101.85;48.88;;;13.30;99.90;;;;;;5071407;28;20114;-72
2022/09/24 01:57:13;;;;;;;107.10;51.42;;;13.30;99.90;;;;;;5052739;28;20086;-72
2022/09/24 01:59:55;;;;;;;99.82;47.08;;;13.30;99.90;;;;;;5057477;28;20068;-72
2022/09/24 02:02:45;;;;;;;101.20;48.75;;;13.30;99.90;;;;;;5055073;28;20640;-72
2022/09/24 02:05:35;;;;;;;106.18;48.47;;;13.50;99.90;;;;;;5057129;28;20040;-72
2022/09/24 02:08:16;;;;;;;93.72;46.63;;;13.40;99.90;;;;;;5056844;28;20523;-72
2022/09/24 02:10:55;;;;;;;101.78;48.45;;;13.40;99.90;;;;;;5056928;28;20034;-72
2022/09/24 02:13:24;;;;;;;96.93;48.53;;;13.40;99.90;;;;;;5055661;28;20076;-72
2022/09/24 02:15:54;;;;;;;96.00;47.05;;;13.30;99.90;;;;;;5052573;28;20422;-72
2022/09/24 02:18:25;;;;;;;96.88;48.17;;;13.40;99.90;;;;;;5054060;28;20045;-72
2022/09/24 02:20:52;;;;;;;92.95;46.42;;;13.20;99.90;;;;;;5056871;28;20479;-72
2022/09/24 02:23:19;;;;;;;97.53;47.20;;;13.30;99.90;;;;;;5057176;28;20032;-72
2022/09/24 02:25:58;;;;;;;101.22;48.22;;;13.40;99.90;;;;;;5055487;28;20474;-72
2022/09/24 02:28:25;;;;;;;109.10;50.47;;;13.30;99.90;;;;;;5053710;28;20043;-72
2022/09/24 02:31:11;;;;;;;106.03;48.13;;;13.20;99.90;;;;;;5055529;28;20521;-72
2022/09/24 02:36:26;;;;;;;90.28;44.47;;;13.20;99.90;;;;;;5054592;28;20317;-72
2022/09/24 02:38:52;;;;;;;93.82;45.28;;;13.20;99.90;;;;;;5054053;28;20044;-71
2022/09/24 02:41:22;;;;;;;89.20;45.60;;;13.10;99.90;;;;;;5060740;28;20040;-72
2022/09/24 02:43:48;;;;;;;92.68;46.13;;;13.20;99.90;;;;;;5046009;28;20056;-72
2022/09/24 02:46:13;;;;;;;91.28;45.00;;;13.30;99.90;;;;;;5052782;28;20511;-72
2022/09/24 02:48:39;;;;;;;84.18;42.97;;;13.20;99.90;;;;;;5041231;28;20050;-71
2022/09/24 02:51:05;;;;;;;91.07;45.35;;;13.20;99.90;;;;;;5055319;28;20442;-72
2022/09/24 02:53:31;;;;;;;84.82;43.47;;;13.10;99.90;;;;;;5037691;28;20040;-72
2022/09/24 02:55:59;;;;;;;88.30;44.50;;;13.20;99.90;;;;;;5052654;28;20041;-73
2022/09/24 02:58:29;;;;;;;98.13;47.05;;;13.10;99.90;;;;;;5059589;28;20115;-72
2022/09/24 03:00:55;;;;;;;95.05;45.22;;;13.10;99.90;;;;;;5055489;28;20043;-72
2022/09/24 03:03:22;;;;;;;89.53;44.17;;;13.20;99.90;;;;;;5057484;28;20049;-72
2022/09/24 03:05:53;;;;;;;92.55;45.78;;;13.20;99.90;;;;;;5073068;28;20068;-72
2022/09/24 03:08:20;;;;;;;88.25;44.67;;;13.20;99.90;;;;;;5059334;28;20032;-72
2022/09/24 03:10:46;;;;;;;96.78;46.22;;;13.10;99.90;;;;;;5058184;28;20090;-72
2022/09/24 03:13:12;;;;;;;95.45;45.75;;;13.10;99.90;;;;;;5051487;28;20044;-72
2022/09/24 03:15:38;;;;;;;117.05;50.78;;;13.10;99.90;;;;;;5050424;28;20162;-72
2022/09/24 03:18:04;;;;;;;89.70;44.55;;;13.00;99.90;;;;;;5053098;28;20509;-71
2022/09/24 03:20:29;;;;;;;99.88;46.95;;;13.00;99.90;;;;;;5054427;28;20071;-72
2022/09/24 03:22:55;;;;;;;91.50;45.30;;;13.00;99.90;;;;;;5047576;28;20040;-72
2022/09/24 03:25:21;;;;;;;90.47;43.85;;;13.00;99.90;;;;;;5049219;28;20047;-71
2022/09/24 03:27:46;;;;;;;99.38;46.33;;;13.10;99.90;;;;;;5050525;28;20074;-72
2022/09/24 03:32:58;;;;;;;86.05;43.22;;;13.10;99.90;;;;;;5047359;28;20056;-71
2022/09/24 03:35:24;;;;;;;95.20;46.28;;;13.10;99.90;;;;;;5049975;28;20045;-72
2022/09/24 03:37:50;;;;;;;100.95;47.83;;;13.10;99.90;;;;;;5047350;28;20033;-72
2022/09/24 03:40:16;;;;;;;98.13;46.08;;;13.10;99.90;;;;;;5052969;28;20056;-72
2022/09/24 03:42:41;;;;;;;107.22;47.28;;;13.10;99.90;;;;;;5046563;28;20045;-72
2022/09/24 03:45:07;;;;;;;94.45;45.05;;;13.10;99.90;;;;;;5059367;28;20491;-72
2022/09/24 03:47:33;;;;;;;109.70;48.03;;;13.00;99.90;;;;;;5053802;28;20032;-72
2022/09/24 03:49:58;;;;;;;110.85;49.15;;;13.00;99.90;;;;;;5058453;28;20535;-71
2022/09/24 03:52:25;;;;;;;98.32;46.95;;;13.00;99.90;;;;;;5049674;28;20450;-71
2022/09/24 03:54:50;;;;;;;92.47;45.17;;;13.10;99.90;;;;;;5049184;28;20479;-71
2022/09/24 03:57:16;;;;;;;100.97;46.57;;;13.10;99.90;;;;;;5013060;28;1046696;-71
2022/09/24 03:59:43;;;;;;;91.97;44.20;;;13.10;99.90;;;;;;5050365;28;20295;-71
2022/09/24 04:02:09;;;;;;;100.53;47.30;;;13.00;99.90;;;;;;5041777;28;20041;-71
2022/09/24 04:04:35;;;;;;;98.50;46.17;;;12.90;99.90;;;;;;5052558;28;20489;-71
2022/09/24 04:07:01;;;;;;;91.85;45.80;;;13.00;99.90;;;;;;5052900;28;20128;-71
2022/09/24 04:09:27;;;;;;;94.07;46.03;;;12.90;99.90;;;;;;5049491;28;20037;-71
2022/09/24 04:11:52;;;;;;;84.25;43.47;;;13.00;99.90;;;;;;5055502;28;20040;-71
2022/09/24 04:14:19;;;;;;;96.63;44.78;;;13.10;99.90;;;;;;5051261;28;20033;-71
2022/09/24 04:16:45;;;;;;;94.88;45.75;;;12.90;99.90;;;;;;5056984;28;20128;-71
2022/09/24 04:19:11;;;;;;;87.50;45.35;;;12.90;99.90;;;;;;5052304;28;20079;-71
2022/09/24 04:21:37;;;;;;;94.15;45.22;;;13.00;99.90;;;;;;5059736;28;20040;-71
2022/09/24 04:24:03;;;;;;;94.68;45.58;;;13.00;99.90;;;;;;5050069;28;20113;-71
2022/09/24 04:26:29;;;;;;;82.70;42.72;;;12.90;99.90;;;;;;5047598;28;20033;-71
2022/09/24 04:28:58;;;;;;;96.88;45.50;;;12.90;99.90;;;;;;5046395;28;20045;-71
2022/09/24 04:31:25;;;;;;;86.90;44.15;;;12.90;99.90;;;;;;5047480;28;20044;-71
2022/09/24 04:33:51;;;;;;;98.20;46.30;;;13.00;99.90;;;;;;5042653;28;20045;-71
2022/09/24 04:36:17;;;;;;;91.93;45.63;;;12.90;99.90;;;;;;5049594;28;20068;-71
2022/09/24 04:38:45;;;;;;;97.50;46.10;;;13.00;99.90;;;;;;5049602;28;20514;-71
2022/09/24 04:41:12;;;;;;;87.10;44.70;;;13.00;99.90;;;;;;5044049;28;20293;-71
2022/09/24 04:43:38;;;;;;;96.28;44.75;;;13.00;99.90;;;;;;5056733;28;20394;-72
2022/09/24 04:46:04;;;;;;;105.10;47.80;;;13.00;99.90;;;;;;5065856;28;20029;-72
2022/09/24 04:48:31;;;;;;;113.72;47.38;;;12.90;99.90;;;;;;5049519;28;20044;-72
2022/09/24 04:50:57;;;;;;;100.07;47.10;;;13.00;99.90;;;;;;5051076;28;20033;-72
2022/09/24 04:53:23;;;;;;;98.85;45.38;;;13.00;99.90;;;;;;5060847;28;20633;-72
2022/09/24 04:55:49;;;;;;;106.53;47.55;;;12.90;99.90;;;;;;5063620;28;20467;-71
2022/09/24 04:58:14;;;;;;;93.45;45.30;;;13.00;99.90;;;;;;5061128;28;20070;-72
2022/09/24 05:00:42;;;;;;;98.82;45.38;;;12.90;99.90;;;;;;5056744;28;20071;-72
2022/09/24 05:03:08;;;;;;;110.38;47.88;;;12.90;99.90;;;;;;5071708;28;20068;-72
2022/09/24 05:05:35;;;;;;;91.40;45.13;;;13.00;99.90;;;;;;5053622;28;20075;-72
2022/09/24 05:08:01;;;;;;;99.25;45.95;;;12.90;99.90;;;;;;5073353;28;20143;-71
2022/09/24 05:10:28;;;;;;;115.32;47.95;;;13.00;99.90;;;;;;5056491;28;20424;-71
2022/09/24 05:12:53;;;;;;;93.82;44.30;;;12.90;99.90;;;;;;5053596;28;20033;-71
2022/09/24 05:15:20;;;;;;;97.82;46.40;;;13.00;99.90;;;;;;5052123;28;20175;-71
2022/09/24 05:17:46;;;;;;;91.68;44.55;;;13.10;99.90;;;;;;5055315;28;20119;-71
2022/09/24 05:20:14;;;;;;;100.47;47.33;;;12.90;99.90;;;;;;5056534;28;20127;-72
2022/09/24 05:22:40;;;;;;;94.47;46.30;;;13.00;99.90;;;;;;5057440;28;20041;-71
2022/09/24 05:25:06;;;;;;;101.13;47.67;;;13.10;99.90;;;;;;5059686;28;20137;-72
2022/09/24 05:27:32;;;;;;;91.53;44.15;;;13.10;99.90;;;;;;5050552;28;20048;-72
2022/09/24 05:29:59;;;;;;;98.38;45.42;;;13.00;99.90;;;;;;5050583;28;20525;-71
2022/09/24 05:32:25;;;;;;;105.88;46.85;;;13.10;99.90;;;;;;5071662;28;20067;-71
2022/09/24 05:34:51;;;;;;;98.55;46.60;;;13.00;99.90;;;;;;5057079;28;20211;-71
2022/09/24 05:37:17;;;;;;;100.68;45.75;;;13.00;99.90;;;;;;5060229;28;20079;-72
2022/09/24 05:39:42;;;;;;;113.18;48.08;;;13.00;99.90;;;;;;5057245;28;20039;-72
2022/09/24 05:42:10;;;;;;;106.13;46.72;;;13.10;99.90;;;;;;5054566;28;20225;-72
2022/09/24 05:44:36;;;;;;;96.22;44.65;;;13.00;99.90;;;;;;5056516;28;20446;-71
2022/09/24 05:47:01;;;;;;;107.82;47.83;;;13.10;99.90;;;;;;5053663;28;20050;-72
2022/09/24 05:49:27;;;;;;;92.95;44.17;;;13.00;99.90;;;;;;5057783;28;20119;-72
2022/09/24 05:51:53;;;;;;;88.00;42.65;;;13.20;99.90;;;;;;5073767;28;20036;-72
2022/09/24 05:54:18;;;;;;;100.05;44.80;;;13.10;99.90;;;;;;5063507;28;20470;-72
2022/09/24 05:56:44;;;;;;;92.22;43.55;;;13.00;99.90;;;;;;5060793;28;20040;-71
2022/09/24 05:59:10;;;;;;;91.60;44.22;;;13.20;99.90;;;;;;5057221;28;20049;-72
2022/09/24 06:01:36;;;;;;;85.05;42.35;;;13.20;99.90;;;;;;5036575;28;20499;-68
2022/09/24 06:04:01;;;;;;;89.32;43.88;;;13.20;99.90;;;;;;5053006;28;20979;-71
2022/09/24 06:06:27;;;;;;;94.90;43.63;;;13.10;99.90;;;;;;5055690;28;20388;-73
2022/09/24 06:08:54;;;;;;;100.57;44.97;;;13.20;99.90;;;;;;5051916;28;20033;-70
2022/09/24 06:11:23;;;;;;;125.82;45.92;;;13.20;99.90;;;;;;5057447;28;20041;-71
2022/09/24 06:13:50;;;;;;;133.68;46.67;;;13.30;99.90;;;;;;5067585;28;20045;-71
2022/09/24 06:16:16;;;;;;;149.60;46.72;;;13.10;99.90;;;;;;5058758;28;20032;-72
2022/09/24 06:18:43;;;;;;;140.90;47.47;;;13.20;99.90;;;;;;5060394;28;20063;-72
2022/09/24 06:21:14;;;;;;;169.23;49.05;;;13.20;99.90;;;;;;5057899;28;20132;-73
2022/09/24 06:23:40;;;;;;;150.98;49.00;;;13.20;99.90;;;;;;5059439;28;20050;-72
2022/09/24 06:26:09;;;;;;;175.40;50.00;;;13.20;99.90;;;;;;5058835;28;20087;-72
2022/09/24 06:28:36;;;;;;;194.68;51.83;;;13.10;99.90;;;;;;5052298;28;20123;-72
2022/09/24 06:31:03;;;;;;;203.77;50.65;;;13.20;99.90;;;;;;5057405;28;20055;-72
2022/09/24 06:33:29;;;;;;;218.98;52.88;;;13.10;99.90;;;;;;5052951;28;20138;-73
2022/09/24 06:35:58;;;;;;;201.82;51.72;;;13.10;99.90;;;;;;5056902;28;21734;-70
2022/09/24 06:38:24;;;;;;;124.88;45.00;;;13.10;99.90;;;;;;5049226;28;20041;-68
2022/09/24 06:40:50;;;;;;;113.75;43.80;;;13.00;99.90;;;;;;5053923;28;20044;-68
2022/09/24 06:43:19;;;;;;;121.50;45.53;;;13.30;99.90;;;;;;5056947;28;20036;-68
2022/09/24 06:45:44;;;;;;;100.15;42.53;;;13.20;99.90;;;;;;5057808;28;20466;-67
2022/09/24 06:48:13;;;;;;;117.47;44.17;;;13.30;99.90;;;;;;5056901;28;20047;-69
2022/09/24 06:50:42;;;;;;;130.98;44.55;;;13.10;99.90;;;;;;5060944;28;20136;-69
2022/09/24 06:53:08;;;;;;;118.75;45.90;;;13.00;99.90;;;;;;5050155;28;20530;-67
2022/09/24 06:55:34;;;;;;;136.82;44.22;;;13.00;99.90;;;;;;5042920;28;20096;-67
2022/09/24 06:58:09;;;;;;;147.32;44.03;;;13.00;99.90;;;;;;5046927;28;20040;-67
2022/09/24 07:00:36;;;;;;;88.32;33.75;;;13.10;99.90;;;;;;5053860;28;20041;-68
2022/09/24 07:03:02;;;;;;;84.20;32.50;;;13.00;99.90;;;;;;5053120;28;20067;-72
2022/09/24 07:05:27;;;;;;;47.28;20.50;;;13.00;99.90;;;;;;5055751;28;20032;-71
2022/09/24 07:07:53;;;;;;;66.03;24.70;;;13.10;99.90;;;;;;5050163;28;20479;-71
2022/09/24 07:10:19;;;;;;;22.50;9.02;;;13.10;99.90;;;;;;5051964;28;20040;-68
2022/09/24 07:12:45;;;;;;;25.77;10.55;;;13.00;99.90;;;;;;5044407;28;20045;-70
2022/09/24 07:15:11;;;;;;;34.20;12.02;;;13.10;99.90;;;;;;5054218;28;20401;-72
2022/09/24 07:17:37;;;;;;;30.08;12.55;;;13.20;99.90;;;;;;5048766;28;20033;-71
2022/09/24 07:20:06;;;;;;;30.27;13.10;;;13.20;99.90;;;;;;5045815;28;20116;-72
2022/09/24 07:22:36;;;;;;;32.17;14.32;;;13.10;99.90;;;;;;5043757;28;20534;-71
2022/09/24 07:25:02;;;;;;;31.77;14.38;;;13.30;99.90;;;;;;5053805;28;21178;-72
2022/09/24 07:27:27;;;;;;;37.03;16.27;;;13.20;99.90;;;;;;5045066;28;20030;-69
2022/09/24 07:29:53;;;;;;;37.42;17.70;;;13.30;99.90;;;;;;5049271;28;20044;-70
2022/09/24 07:32:19;;;;;;;40.63;18.58;;;13.40;99.90;;;;;;5050536;28;20519;-69
2022/09/24 07:34:44;;;;;;;44.95;19.40;;;13.40;99.90;;;;;;5044521;28;20040;-70
2022/09/24 07:37:10;;;;;;;48.10;20.02;;;13.40;99.90;;;;;;5047767;28;20602;-70
2022/09/24 07:39:36;;;;;;;42.38;19.10;;;13.30;99.90;;;;;;5074038;28;20569;-70
2022/09/24 07:42:01;;;;;;;44.47;19.80;;;13.50;99.90;;;;;;5051412;28;20041;-70
2022/09/24 07:44:28;;;;;;;46.60;19.58;;;13.30;99.90;;;;;;5049577;28;20037;-70
2022/09/24 07:46:54;;;;;;;49.38;20.52;;;13.60;99.90;;;;;;5043051;28;20392;-70
2022/09/24 07:49:20;;;;;;;54.58;21.48;;;13.50;99.90;;;;;;5048599;28;20036;-71
2022/09/24 07:51:46;;;;;;;51.70;22.00;;;13.40;99.90;;;;;;5048208;28;20045;-70
2022/09/24 07:54:11;;;;;;;58.45;22.67;;;13.60;99.90;;;;;;5048833;28;20150;-72
2022/09/24 07:56:37;;;;;;;47.17;21.65;;;13.50;99.90;;;;;;5049086;28;20365;-71
2022/09/24 07:59:05;;;;;;;53.38;21.90;;;13.70;99.90;;;;;;5048491;28;20041;-72
2022/09/24 08:01:30;;;;;;;57.25;22.70;;;13.50;99.90;;;;;;5048660;28;20045;-72
2022/09/24 08:03:57;;;;;;;53.42;22.20;;;13.80;99.90;;;;;;5042210;28;20052;-72
2022/09/24 08:06:23;;;;;;;59.47;23.08;;;13.70;99.90;;;;;;5028867;28;20172;-72
2022/09/24 08:08:49;;;;;;;46.13;20.05;;;13.80;99.90;;;;;;5029863;28;20128;-72
2022/09/24 08:11:16;;;;;;;43.67;20.27;;;13.90;99.90;;;;;;5047375;28;20053;-71
2022/09/24 08:13:42;;;;;;;42.70;20.05;;;13.90;99.90;;;;;;5040107;28;20055;-71
2022/09/24 08:16:07;;;;;;;41.13;19.00;;;13.90;99.90;;;;;;5068947;28;20403;-71
2022/09/24 08:18:33;;;;;;;43.63;19.20;;;13.80;99.90;;;;;;5064282;28;20037;-71
2022/09/24 08:21:05;;;;;;;38.78;18.20;;;14.00;99.90;;;;;;5044094;28;20103;-69
2022/09/24 08:23:35;;;;;;;44.25;18.20;;;13.90;99.90;;;;;;5049024;28;20171;-70
2022/09/24 08:26:02;;;;;;;47.47;19.15;;;13.90;99.90;;;;;;5048183;28;20145;-70
2022/09/24 08:28:28;;;;;;;38.80;17.42;;;13.90;99.90;;;;;;5048736;28;20040;-70
2022/09/24 08:31:01;;;;;;;32.67;15.70;;;13.90;99.90;;;;;;5053684;28;20481;-70
2022/09/24 08:33:28;;;;;;;35.08;15.70;;;14.10;99.90;;;;;;5047562;28;20048;-70
2022/09/24 08:35:54;;;;;;;29.92;14.23;;;14.20;99.90;;;;;;5051502;28;20048;-71
2022/09/24 08:38:22;;;;;;;35.28;15.95;;;14.10;99.90;;;;;;5052483;28;20037;-71
2022/09/24 08:41:10;;;;;;;35.63;14.90;;;14.00;99.90;;;;;;5046924;28;20075;-70
2022/09/24 08:43:51;;;;;;;32.30;13.63;;;14.20;99.90;;;;;;5051726;28;20044;-70
2022/09/24 08:49:32;;;;;;;33.33;13.88;;;14.00;99.90;;;;;;5051540;28;20109;-71
2022/09/24 08:52:02;;;;;;;32.78;14.25;;;14.20;99.90;;;;;;5050852;28;20148;-71
2022/09/24 08:54:32;;;;;;;32.50;14.00;;;14.00;99.90;;;;;;5048582;28;20061;-71
2022/09/24 08:57:02;;;;;;;29.00;13.38;;;14.10;99.90;;;;;;5052995;28;20086;-73
2022/09/24 08:59:31;;;;;;;36.55;14.82;;;14.10;99.90;;;;;;5051860;28;20029;-71
2022/09/24 09:02:38;;;;;;;32.25;14.25;;;14.30;99.90;;;;;;5051728;28;20396;-71
2022/09/24 09:05:42;;;;;;;30.98;13.68;;;14.40;99.90;;;;;;5056471;28;20044;-71
2022/09/24 09:08:18;;;;;;;34.50;13.80;;;14.40;99.90;;;;;;5043182;28;20087;-71
2022/09/24 09:10:44;;;;;;;33.35;13.38;;;14.30;99.90;;;;;;5052062;28;20044;-71
2022/09/24 09:13:38;;;;;;;30.88;12.75;;;14.20;99.90;;;;;;5032225;28;20052;-70
2022/09/24 09:16:11;;;;;;;31.42;9.88;;;14.50;99.90;;;;;;5057177;28;20053;-72
2022/09/24 09:18:43;;;;;;;22.60;8.38;;;14.50;99.90;;;;;;5051923;28;20056;-72
2022/09/24 09:21:16;;;;;;;20.95;7.75;;;14.60;99.90;;;;;;5031802;28;20055;-71
2022/09/24 09:23:47;;;;;;;26.60;8.18;;;14.40;99.90;;;;;;5067422;28;20483;-72
2022/09/24 09:26:13;;;;;;;21.77;5.72;;;14.50;99.90;;;;;;5043896;28;20044;-73
2022/09/24 09:28:39;;;;;;;18.83;3.47;;;14.70;99.90;;;;;;5051212;28;20045;-74
2022/09/24 09:31:50;;;;;;;16.15;3.78;;;14.70;99.90;;;;;;5066472;28;20037;-73
2022/09/24 09:34:31;;;;;;;19.40;3.42;;;14.80;99.90;;;;;;5059169;28;20476;-74
2022/09/24 09:37:24;;;;;;;17.33;2.92;;;14.50;99.90;;;;;;5055260;28;20036;-74
2022/09/24 09:39:50;;;;;;;17.00;3.20;;;14.70;99.90;;;;;;5051821;28;20032;-73
2022/09/24 09:42:30;;;;;;;21.65;3.00;;;14.80;99.90;;;;;;5051241;28;20437;-74
2022/09/24 09:45:01;;;;;;;13.73;2.50;;;14.70;99.90;;;;;;5058128;28;20045;-72
2022/09/24 09:47:56;;;;;;;19.50;3.10;;;14.60;99.90;;;;;;5050219;28;20041;-74
2022/09/24 09:50:25;;;;;;;15.93;2.90;;;14.60;99.90;;;;;;5043578;28;20514;-73
2022/09/24 09:52:51;;;;;;;15.23;2.95;;;14.70;99.90;;;;;;5056180;28;20045;-71
2022/09/24 09:55:30;;;;;;;14.52;2.53;;;14.70;99.90;;;;;;5045514;28;20369;-73
2022/09/24 09:58:13;;;;;;;12.98;2.65;;;14.60;99.90;;;;;;5049004;28;20041;-73
2022/09/24 10:00:40;;;;;;;18.23;2.90;;;14.70;99.90;;;;;;5048101;28;20033;-75
2022/09/24 10:03:19;;;;;;;17.55;2.50;;;14.60;99.90;;;;;;5044853;28;20041;-72
2022/09/24 10:05:55;;;;;;;12.25;2.17;;;14.60;99.90;;;;;;5052537;28;20563;-73
2022/09/24 10:08:23;;;;;;;13.25;2.47;;;14.80;99.90;;;;;;5052884;28;20510;-74
2022/09/24 10:10:56;;;;;;;17.27;2.60;;;14.80;99.90;;;;;;5060766;28;20045;-73
2022/09/24 10:13:23;;;;;;;12.82;2.63;;;14.80;99.90;;;;;;5049935;28;20097;-74
2022/09/24 10:15:53;;;;;;;11.88;2.38;;;14.90;99.90;;;;;;5054526;28;20177;-73
2022/09/24 10:18:48;;;;;;;13.57;2.65;;;14.90;99.90;;;;;;5050602;28;20045;-74
2022/09/24 10:21:35;;;;;;;12.65;2.10;;;15.00;99.90;;;;;;5033185;28;20124;-73
2022/09/24 10:24:03;;;;;;;15.80;2.33;;;15.00;99.90;;;;;;5039402;28;20450;-72
2022/09/24 10:26:38;;;;;;;16.25;2.55;;;15.00;99.90;;;;;;5051320;28;20033;-75
2022/09/24 10:31:50;;;;;;;14.20;2.17;;;14.90;99.90;;;;;;5049999;28;20557;-75
2022/09/24 10:34:25;;;;;;;14.45;2.40;;;14.90;99.90;;;;;;5049943;28;20041;-72
2022/09/24 10:36:59;;;;;;;18.08;2.38;;;15.10;99.90;;;;;;5044463;28;20067;-77
2022/09/24 10:39:25;;;;;;;13.88;2.45;;;15.00;99.90;;;;;;5030978;28;20060;-69
2022/09/24 10:41:52;;;;;;;12.30;2.50;;;15.00;99.90;;;;;;5048295;28;20468;-71
2022/09/24 10:44:20;;;;;;;11.50;2.10;;;15.10;99.90;;;;;;5045632;28;20045;-73
2022/09/24 10:47:04;;;;;;;17.35;2.33;;;15.20;99.90;;;;;;5030256;28;20037;-74
2022/09/24 10:49:38;;;;;;;12.93;1.80;;;15.20;99.90;;;;;;5030596;28;20045;-74
2022/09/24 10:52:41;;;;;;;14.07;2.28;;;15.20;99.90;;;;;;5031679;28;20092;-76
2022/09/24 10:55:20;;;;;;;10.30;1.73;;;15.20;99.90;;;;;;5049189;28;20042;-74
2022/09/24 10:58:04;;;;;;;12.57;1.98;;;15.30;99.90;;;;;;5052633;28;20067;-76
2022/09/24 11:01:06;;;;;;;10.77;1.80;;;15.30;99.90;;;;;;5055854;28;20045;-76
2022/09/24 11:03:44;;;;;;;17.50;2.13;;;15.20;99.90;;;;;;5042399;28;20319;-74
2022/09/24 11:06:34;;;;;;;12.82;1.98;;;15.30;99.90;;;;;;5050614;28;20037;-74
2022/09/24 11:09:25;;;;;;;12.27;1.98;;;15.20;99.90;;;;;;5049956;28;20191;-74
2022/09/24 11:12:02;;;;;;;8.60;1.60;;;15.30;99.90;;;;;;5052956;28;20037;-73
2022/09/24 11:14:54;;;;;;;8.75;1.63;;;15.20;99.90;;;;;;5030724;28;20459;-75
2022/09/24 11:17:32;;;;;;;7.18;1.40;;;15.20;99.90;;;;;;5049816;28;20039;-75
2022/09/24 11:20:00;;;;;;;7.85;1.80;;;15.10;99.90;;;;;;5061379;28;20037;-77
2022/09/24 11:22:39;;;;;;;10.43;2.05;;;15.20;99.90;;;;;;5041245;28;20037;-76
2022/09/24 11:25:26;;;;;;;11.45;1.83;;;15.20;99.90;;;;;;5047349;28;20037;-74
2022/09/24 11:28:04;;;;;;;10.60;1.50;;;15.30;99.90;;;;;;5041162;28;20044;-74
2022/09/24 11:30:50;;;;;;;7.93;1.55;;;15.20;99.90;;;;;;5027470;28;20050;-75
2022/09/24 11:33:28;;;;;;;5.90;1.52;;;15.20;99.90;;;;;;5052546;28;20049;-76
2022/09/24 11:36:05;;;;;;;6.82;1.60;;;15.30;99.90;;;;;;5049978;28;20064;-76
2022/09/24 11:39:06;;;;;;;6.82;1.40;;;15.30;99.90;;;;;;5044633;28;20397;-75
2022/09/24 11:41:31;;;;;;;7.88;1.55;;;15.30;99.90;;;;;;5056403;28;20045;-77
2022/09/24 11:44:53;;;;;;;6.55;1.60;;;15.40;99.90;;;;;;5049215;28;20119;-76
2022/09/24 11:47:34;;;;;;;7.97;1.90;;;15.40;99.90;;;;;;5027759;28;20060;-77
2022/09/24 11:50:12;;;;;;;8.95;2.00;;;15.40;99.90;;;;;;5033552;28;20387;-75
2022/09/24 11:52:46;;;;;;;6.63;1.50;;;15.30;99.90;;;;;;5058000;28;20076;-76
2022/09/24 11:55:39;;;;;;;7.03;1.52;;;15.20;99.90;;;;;;5041176;28;20359;-75
2022/09/24 11:58:18;;;;;;;8.38;1.85;;;15.20;99.90;;;;;;5057658;28;20041;-74
2022/09/24 12:01:05;;;;;;;11.25;1.98;;;15.10;99.90;;;;;;5050017;28;20052;-75
2022/09/24 12:03:35;;;;;;;10.40;2.33;;;15.00;99.90;;;;;;5046654;28;20127;-74
2022/09/24 12:06:16;;;;;;;8.40;1.60;;;15.10;99.90;;;;;;5063108;28;20491;-73
2022/09/24 12:09:02;;;;;;;8.95;2.05;;;15.10;99.90;;;;;;5045447;28;20086;-69
2022/09/24 12:11:32;;;;;;;6.10;1.48;;;15.30;99.90;;;;;;5046111;28;20116;-71
2022/09/24 12:14:11;;;;;;;7.63;1.83;;;15.40;99.90;;;;;;5067753;28;20048;-76
2022/09/24 12:16:39;;;;;;;11.52;1.95;;;15.30;99.90;;;;;;5051806;28;20081;-73
2022/09/24 12:19:11;;;;;;;11.93;1.90;;;15.30;99.90;;;;;;5037987;28;20048;-72
2022/09/24 12:21:39;;;;;;;8.95;1.85;;;15.50;99.90;;;;;;5051237;28;20039;-70
2022/09/24 12:24:29;;;;;;;15.60;2.20;;;15.40;99.90;;;;;;5051232;28;20506;-67
2022/09/24 12:26:58;;;;;;;12.93;2.10;;;15.30;99.90;;;;;;5044855;28;20087;-76
2022/09/24 12:32:56;;;;;;;6.68;1.70;;;15.00;99.90;;;;;;5055454;28;20048;-72
2022/09/24 12:35:37;;;;;;;2.80;0.93;;;15.10;99.90;;;;;;5048062;28;20048;-72
2022/09/24 12:38:12;;;;;;;7.00;1.30;;;15.00;99.90;;;;;;5054806;28;20052;-75
2022/09/24 12:40:54;;;;;;;3.38;0.98;;;14.90;99.90;;;;;;5059602;28;20051;-76
2022/09/24 12:43:33;;;;;;;7.47;1.42;;;14.90;99.90;;;;;;5063177;28;20495;-71
2022/09/24 12:46:01;;;;;;;6.00;1.50;;;14.90;99.90;;;;;;5051149;28;20044;-76
2022/09/24 12:48:30;;;;;;;6.70;1.40;;;14.90;99.90;;;;;;5056805;28;20480;-72
2022/09/24 12:51:01;;;;;;;3.35;0.80;;;14.90;99.90;;;;;;5071046;28;20097;-72
2022/09/24 12:53:35;;;;;;;6.35;1.40;;;15.00;99.90;;;;;;5052589;28;20041;-70
2022/09/24 12:56:03;;;;;;;6.50;1.63;;;15.00;99.90;;;;;;5072219;28;20549;-70
2022/09/24 12:58:32;;;;;;;8.35;1.83;;;15.00;99.90;;;;;;5058894;28;20053;-69
2022/09/24 13:01:24;;;;;;;11.90;1.50;;;15.00;99.90;;;;;;5052686;28;20422;-71
2022/09/24 13:04:13;;;;;;;8.57;1.37;;;14.90;99.90;;;;;;5054131;28;20131;-72
2022/09/24 13:06:40;;;;;;;9.25;1.92;;;14.90;99.90;;;;;;5059045;28;20029;-74
2022/09/24 13:09:32;;;;;;;10.52;1.92;;;14.80;99.90;;;;;;5058430;28;20154;-74